sensor_id;sensor_type;location;lat;lon;timestamp;pressure;altitude;pressure_sealevel;temperature
76394;BMP180;65216;51.090;-115.352;2023-04-07T00:02:32;86515.00;;;22.80
76394;BMP180;65216;51.090;-115.352;2023-04-07T00:04:59;86513.20;;;22.80
76394;BMP180;65216;51.090;-115.352;2023-04-07T00:07:30;86532.20;;;22.80
76394;BMP180;65216;51.090;-115.352;2023-04-07T00:09:59;86536.80;;;22.80
76394;BMP180;65216;51.090;-115.352;2023-04-07T00:12:27;86525.40;;;22.80
76394;BMP180;65216;51.090;-115.352;2023-04-07T00:14:54;86523.40;;;22.76
76394;BMP180;65216;51.090;-115.352;2023-04-07T00:17:21;86527.60;;;22.80
76394;BMP180;65216;51.090;-115.352;2023-04-07T00:19:50;86510.60;;;22.78
76394;BMP180;65216;51.090;-115.352;2023-04-07T00:22:20;86518.00;;;22.70
76394;BMP180;65216;51.090;-115.352;2023-04-07T00:24:50;86519.20;;;22.70
76394;BMP180;65216;51.090;-115.352;2023-04-07T00:27:17;86525.60;;;22.70
76394;BMP180;65216;51.090;-115.352;2023-04-07T00:29:51;86527.00;;;22.70
76394;BMP180;65216;51.090;-115.352;2023-04-07T00:32:21;86522.80;;;22.70
76394;BMP180;65216;51.090;-115.352;2023-04-07T00:34:48;86518.80;;;22.70
76394;BMP180;65216;51.090;-115.352;2023-04-07T00:37:15;86503.00;;;22.70
76394;BMP180;65216;51.090;-115.352;2023-04-07T00:39:46;86529.60;;;22.70
76394;BMP180;65216;51.090;-115.352;2023-04-07T00:42:13;86522.60;;;22.70
76394;BMP180;65216;51.090;-115.352;2023-04-07T00:44:40;86512.20;;;22.70
76394;BMP180;65216;51.090;-115.352;2023-04-07T00:47:10;86514.20;;;22.70
76394;BMP180;65216;51.090;-115.352;2023-04-07T00:49:38;86526.40;;;22.74
76394;BMP180;65216;51.090;-115.352;2023-04-07T00:52:06;86504.40;;;22.80
76394;BMP180;65216;51.090;-115.352;2023-04-07T00:54:37;86541.60;;;22.80
76394;BMP180;65216;51.090;-115.352;2023-04-07T00:57:05;86519.20;;;22.80
76394;BMP180;65216;51.090;-115.352;2023-04-07T00:59:33;86528.80;;;22.80
76394;BMP180;65216;51.090;-115.352;2023-04-07T01:02:42;86514.00;;;22.80
76394;BMP180;65216;51.090;-115.352;2023-04-07T01:08:20;86512.60;;;22.80
76394;BMP180;65216;51.090;-115.352;2023-04-07T01:10:59;86543.40;;;22.80
76394;BMP180;65216;51.090;-115.352;2023-04-07T01:13:58;86538.40;;;22.70
76394;BMP180;65216;51.090;-115.352;2023-04-07T01:16:34;86529.20;;;22.70
76394;BMP180;65216;51.090;-115.352;2023-04-07T01:19:39;86523.80;;;22.70
76394;BMP180;65216;51.090;-115.352;2023-04-07T01:22:12;86533.80;;;22.60
76394;BMP180;65216;51.090;-115.352;2023-04-07T01:30:32;86526.80;;;22.58
76394;BMP180;65216;51.090;-115.352;2023-04-07T01:33:01;86530.20;;;22.50
76394;BMP180;65216;51.090;-115.352;2023-04-07T01:35:36;86524.00;;;22.50
76394;BMP180;65216;51.090;-115.352;2023-04-07T01:38:06;86526.40;;;22.50
76394;BMP180;65216;51.090;-115.352;2023-04-07T01:40:38;86522.00;;;22.48
76394;BMP180;65216;51.090;-115.352;2023-04-07T01:43:08;86529.00;;;22.40
76394;BMP180;65216;51.090;-115.352;2023-04-07T01:45:36;86521.40;;;22.40
76394;BMP180;65216;51.090;-115.352;2023-04-07T01:48:08;86511.40;;;22.40
76394;BMP180;65216;51.090;-115.352;2023-04-07T01:50:38;86524.80;;;22.40
76394;BMP180;65216;51.090;-115.352;2023-04-07T01:53:07;86523.60;;;22.40
76394;BMP180;65216;51.090;-115.352;2023-04-07T01:55:34;86531.00;;;22.40
76394;BMP180;65216;51.090;-115.352;2023-04-07T01:58:06;86526.80;;;22.34
76394;BMP180;65216;51.090;-115.352;2023-04-07T02:00:33;86531.20;;;22.30
76394;BMP180;65216;51.090;-115.352;2023-04-07T02:03:21;86537.00;;;22.30
76394;BMP180;65216;51.090;-115.352;2023-04-07T02:05:57;86526.60;;;22.30
76394;BMP180;65216;51.090;-115.352;2023-04-07T02:08:35;86522.00;;;22.30
76394;BMP180;65216;51.090;-115.352;2023-04-07T02:11:04;86519.60;;;22.20
76394;BMP180;65216;51.090;-115.352;2023-04-07T02:13:36;86518.00;;;22.20
76394;BMP180;65216;51.090;-115.352;2023-04-07T02:16:05;86525.80;;;22.20
76394;BMP180;65216;51.090;-115.352;2023-04-07T02:18:33;86520.60;;;22.20
76394;BMP180;65216;51.090;-115.352;2023-04-07T02:21:03;86526.40;;;22.20
76394;BMP180;65216;51.090;-115.352;2023-04-07T02:23:34;86522.40;;;22.18
76394;BMP180;65216;51.090;-115.352;2023-04-07T02:26:01;86511.80;;;22.10
76394;BMP180;65216;51.090;-115.352;2023-04-07T02:28:28;86513.20;;;22.10
76394;BMP180;65216;51.090;-115.352;2023-04-07T02:30:55;86516.00;;;22.10
76394;BMP180;65216;51.090;-115.352;2023-04-07T02:33:22;86518.20;;;22.10
76394;BMP180;65216;51.090;-115.352;2023-04-07T02:35:49;86530.80;;;22.10
76394;BMP180;65216;51.090;-115.352;2023-04-07T02:38:16;86524.60;;;22.06
76394;BMP180;65216;51.090;-115.352;2023-04-07T02:40:43;86527.60;;;22.00
76394;BMP180;65216;51.090;-115.352;2023-04-07T02:43:10;86529.40;;;22.00
76394;BMP180;65216;51.090;-115.352;2023-04-07T02:45:37;86536.80;;;22.00
76394;BMP180;65216;51.090;-115.352;2023-04-07T02:48:04;86527.20;;;21.94
76394;BMP180;65216;51.090;-115.352;2023-04-07T02:50:31;86523.60;;;21.90
76394;BMP180;65216;51.090;-115.352;2023-04-07T02:52:58;86528.80;;;21.90
76394;BMP180;65216;51.090;-115.352;2023-04-07T02:55:27;86526.60;;;21.90
76394;BMP180;65216;51.090;-115.352;2023-04-07T02:57:54;86530.80;;;21.90
76394;BMP180;65216;51.090;-115.352;2023-04-07T03:00:24;86535.80;;;21.90
76394;BMP180;65216;51.090;-115.352;2023-04-07T03:02:51;86528.20;;;21.90
76394;BMP180;65216;51.090;-115.352;2023-04-07T03:05:18;86543.20;;;21.90
76394;BMP180;65216;51.090;-115.352;2023-04-07T03:07:47;86539.80;;;21.80
76394;BMP180;65216;51.090;-115.352;2023-04-07T03:10:17;86531.20;;;21.80
76394;BMP180;65216;51.090;-115.352;2023-04-07T03:12:44;86546.80;;;21.80
76394;BMP180;65216;51.090;-115.352;2023-04-07T03:15:11;86550.60;;;21.80
76394;BMP180;65216;51.090;-115.352;2023-04-07T03:17:38;86545.00;;;21.80
76394;BMP180;65216;51.090;-115.352;2023-04-07T03:20:08;86542.80;;;21.80
76394;BMP180;65216;51.090;-115.352;2023-04-07T03:22:35;86549.60;;;21.74
76394;BMP180;65216;51.090;-115.352;2023-04-07T03:25:03;86551.00;;;21.70
76394;BMP180;65216;51.090;-115.352;2023-04-07T03:27:30;86549.80;;;21.70
76394;BMP180;65216;51.090;-115.352;2023-04-07T03:29:57;86548.00;;;21.70
76394;BMP180;65216;51.090;-115.352;2023-04-07T03:32:24;86545.20;;;21.70
76394;BMP180;65216;51.090;-115.352;2023-04-07T03:34:51;86548.80;;;21.70
76394;BMP180;65216;51.090;-115.352;2023-04-07T03:37:18;86554.80;;;21.70
76394;BMP180;65216;51.090;-115.352;2023-04-07T03:39:45;86541.80;;;21.70
76394;BMP180;65216;51.090;-115.352;2023-04-07T03:42:12;86546.00;;;21.60
76394;BMP180;65216;51.090;-115.352;2023-04-07T03:44:39;86546.20;;;21.60
76394;BMP180;65216;51.090;-115.352;2023-04-07T03:47:06;86545.00;;;21.60
76394;BMP180;65216;51.090;-115.352;2023-04-07T03:49:34;86549.60;;;21.60
76394;BMP180;65216;51.090;-115.352;2023-04-07T03:52:04;86537.00;;;21.60
76394;BMP180;65216;51.090;-115.352;2023-04-07T03:54:34;86553.00;;;21.60
76394;BMP180;65216;51.090;-115.352;2023-04-07T03:57:02;86554.20;;;21.58
76394;BMP180;65216;51.090;-115.352;2023-04-07T03:59:29;86554.60;;;21.50
76394;BMP180;65216;51.090;-115.352;2023-04-07T04:01:56;86554.00;;;21.50
76394;BMP180;65216;51.090;-115.352;2023-04-07T04:04:23;86548.80;;;21.50
76394;BMP180;65216;51.090;-115.352;2023-04-07T04:06:50;86547.80;;;21.50
76394;BMP180;65216;51.090;-115.352;2023-04-07T04:09:18;86547.60;;;21.50
76394;BMP180;65216;51.090;-115.352;2023-04-07T04:11:46;86558.20;;;21.50
76394;BMP180;65216;51.090;-115.352;2023-04-07T04:14:13;86560.40;;;21.46
76394;BMP180;65216;51.090;-115.352;2023-04-07T04:16:39;86554.40;;;21.44
76394;BMP180;65216;51.090;-115.352;2023-04-07T04:19:06;86546.60;;;21.40
76394;BMP180;65216;51.090;-115.352;2023-04-07T04:21:33;86558.80;;;21.40
76394;BMP180;65216;51.090;-115.352;2023-04-07T04:24:00;86550.20;;;21.40
76394;BMP180;65216;51.090;-115.352;2023-04-07T04:26:27;86551.00;;;21.40
76394;BMP180;65216;51.090;-115.352;2023-04-07T04:28:55;86549.00;;;21.40
76394;BMP180;65216;51.090;-115.352;2023-04-07T04:31:25;86548.60;;;21.40
76394;BMP180;65216;51.090;-115.352;2023-04-07T04:33:52;86552.00;;;21.40
76394;BMP180;65216;51.090;-115.352;2023-04-07T04:36:19;86550.00;;;21.40
76394;BMP180;65216;51.090;-115.352;2023-04-07T04:38:46;86551.40;;;21.40
76394;BMP180;65216;51.090;-115.352;2023-04-07T04:41:13;86552.80;;;21.40
76394;BMP180;65216;51.090;-115.352;2023-04-07T04:43:40;86551.60;;;21.40
76394;BMP180;65216;51.090;-115.352;2023-04-07T04:46:07;86549.20;;;21.36
76394;BMP180;65216;51.090;-115.352;2023-04-07T04:48:34;86548.80;;;21.32
76394;BMP180;65216;51.090;-115.352;2023-04-07T04:51:04;86545.60;;;21.30
76394;BMP180;65216;51.090;-115.352;2023-04-07T04:53:31;86543.20;;;21.30
76394;BMP180;65216;51.090;-115.352;2023-04-07T04:55:58;86542.00;;;21.30
76394;BMP180;65216;51.090;-115.352;2023-04-07T04:58:27;86547.00;;;21.30
76394;BMP180;65216;51.090;-115.352;2023-04-07T05:00:58;86543.80;;;21.30
76394;BMP180;65216;51.090;-115.352;2023-04-07T05:03:27;86545.40;;;21.30
76394;BMP180;65216;51.090;-115.352;2023-04-07T05:05:59;86546.00;;;21.30
76394;BMP180;65216;51.090;-115.352;2023-04-07T05:08:26;86540.60;;;21.30
76394;BMP180;65216;51.090;-115.352;2023-04-07T05:10:53;86541.20;;;21.30
76394;BMP180;65216;51.090;-115.352;2023-04-07T05:13:21;86544.40;;;21.30
76394;BMP180;65216;51.090;-115.352;2023-04-07T05:15:48;86539.00;;;21.24
76394;BMP180;65216;51.090;-115.352;2023-04-07T05:18:15;86541.20;;;21.28
76394;BMP180;65216;51.090;-115.352;2023-04-07T05:20:44;86541.20;;;21.20
76394;BMP180;65216;51.090;-115.352;2023-04-07T05:23:11;86544.80;;;21.20
76394;BMP180;65216;51.090;-115.352;2023-04-07T05:25:38;86538.60;;;21.20
76394;BMP180;65216;51.090;-115.352;2023-04-07T05:28:05;86540.60;;;21.20
76394;BMP180;65216;51.090;-115.352;2023-04-07T05:30:32;86542.60;;;21.20
76394;BMP180;65216;51.090;-115.352;2023-04-07T05:32:59;86536.40;;;21.20
76394;BMP180;65216;51.090;-115.352;2023-04-07T05:35:26;86534.40;;;21.20
76394;BMP180;65216;51.090;-115.352;2023-04-07T05:37:53;86538.20;;;21.20
76394;BMP180;65216;51.090;-115.352;2023-04-07T05:40:20;86536.00;;;21.20
76394;BMP180;65216;51.090;-115.352;2023-04-07T05:42:48;86531.20;;;21.20
76394;BMP180;65216;51.090;-115.352;2023-04-07T05:45:15;86530.60;;;21.20
76394;BMP180;65216;51.090;-115.352;2023-04-07T05:47:45;86533.20;;;21.20
76394;BMP180;65216;51.090;-115.352;2023-04-07T05:50:16;86533.80;;;21.20
76394;BMP180;65216;51.090;-115.352;2023-04-07T05:52:46;86530.00;;;21.20
76394;BMP180;65216;51.090;-115.352;2023-04-07T05:55:13;86532.60;;;21.12
76394;BMP180;65216;51.090;-115.352;2023-04-07T05:57:40;86526.20;;;21.10
76394;BMP180;65216;51.090;-115.352;2023-04-07T06:00:08;86527.40;;;21.10
76394;BMP180;65216;51.090;-115.352;2023-04-07T06:02:36;86525.20;;;21.10
76394;BMP180;65216;51.090;-115.352;2023-04-07T06:05:06;86522.60;;;21.10
76394;BMP180;65216;51.090;-115.352;2023-04-07T06:07:33;86518.60;;;21.10
76394;BMP180;65216;51.090;-115.352;2023-04-07T06:10:01;86519.60;;;21.10
76394;BMP180;65216;51.090;-115.352;2023-04-07T06:12:28;86522.20;;;21.10
76394;BMP180;65216;51.090;-115.352;2023-04-07T06:14:55;86527.60;;;21.10
76394;BMP180;65216;51.090;-115.352;2023-04-07T06:17:22;86528.80;;;21.10
76394;BMP180;65216;51.090;-115.352;2023-04-07T06:19:49;86526.60;;;21.10
76394;BMP180;65216;51.090;-115.352;2023-04-07T06:22:16;86524.60;;;21.10
76394;BMP180;65216;51.090;-115.352;2023-04-07T06:24:43;86526.20;;;21.10
76394;BMP180;65216;51.090;-115.352;2023-04-07T06:27:16;86529.80;;;21.10
76394;BMP180;65216;51.090;-115.352;2023-04-07T06:29:46;86533.40;;;21.10
76394;BMP180;65216;51.090;-115.352;2023-04-07T06:32:13;86526.20;;;21.10
76394;BMP180;65216;51.090;-115.352;2023-04-07T06:34:40;86524.40;;;21.10
76394;BMP180;65216;51.090;-115.352;2023-04-07T06:37:07;86523.20;;;21.10
76394;BMP180;65216;51.090;-115.352;2023-04-07T06:39:34;86524.80;;;21.10
76394;BMP180;65216;51.090;-115.352;2023-04-07T06:42:04;86514.60;;;21.10
76394;BMP180;65216;51.090;-115.352;2023-04-07T06:44:31;86526.80;;;21.10
76394;BMP180;65216;51.090;-115.352;2023-04-07T06:46:58;86526.80;;;21.10
76394;BMP180;65216;51.090;-115.352;2023-04-07T06:49:25;86523.60;;;21.10
76394;BMP180;65216;51.090;-115.352;2023-04-07T06:51:55;86516.60;;;21.10
76394;BMP180;65216;51.090;-115.352;2023-04-07T06:54:24;86515.40;;;21.10
76394;BMP180;65216;51.090;-115.352;2023-04-07T06:56:51;86510.80;;;21.10
76394;BMP180;65216;51.090;-115.352;2023-04-07T06:59:18;86509.00;;;21.10
76394;BMP180;65216;51.090;-115.352;2023-04-07T07:01:48;86500.40;;;21.10
76394;BMP180;65216;51.090;-115.352;2023-04-07T07:04:15;86503.00;;;21.10
76394;BMP180;65216;51.090;-115.352;2023-04-07T07:06:44;86498.80;;;21.10
76394;BMP180;65216;51.090;-115.352;2023-04-07T07:09:11;86503.60;;;21.10
76394;BMP180;65216;51.090;-115.352;2023-04-07T07:11:38;86506.60;;;21.10
76394;BMP180;65216;51.090;-115.352;2023-04-07T07:14:05;86496.20;;;21.12
76394;BMP180;65216;51.090;-115.352;2023-04-07T07:16:35;86495.00;;;21.10
76394;BMP180;65216;51.090;-115.352;2023-04-07T07:19:02;86494.00;;;21.10
76394;BMP180;65216;51.090;-115.352;2023-04-07T07:21:29;86499.00;;;21.10
76394;BMP180;65216;51.090;-115.352;2023-04-07T07:23:57;86492.00;;;21.10
76394;BMP180;65216;51.090;-115.352;2023-04-07T07:26:24;86503.60;;;21.10
76394;BMP180;65216;51.090;-115.352;2023-04-07T07:28:56;86499.60;;;21.18
76394;BMP180;65216;51.090;-115.352;2023-04-07T07:31:23;86499.60;;;21.16
76394;BMP180;65216;51.090;-115.352;2023-04-07T07:33:50;86500.60;;;21.18
76394;BMP180;65216;51.090;-115.352;2023-04-07T07:36:17;86507.00;;;21.14
76394;BMP180;65216;51.090;-115.352;2023-04-07T07:38:44;86500.00;;;21.12
76394;BMP180;65216;51.090;-115.352;2023-04-07T07:41:11;86495.20;;;21.10
76394;BMP180;65216;51.090;-115.352;2023-04-07T07:43:38;86493.40;;;21.12
76394;BMP180;65216;51.090;-115.352;2023-04-07T07:46:05;86490.40;;;21.10
76394;BMP180;65216;51.090;-115.352;2023-04-07T07:48:32;86479.80;;;21.10
76394;BMP180;65216;51.090;-115.352;2023-04-07T07:50:59;86471.80;;;21.10
76394;BMP180;65216;51.090;-115.352;2023-04-07T07:53:28;86465.80;;;21.10
76394;BMP180;65216;51.090;-115.352;2023-04-07T07:55:55;86466.00;;;21.10
76394;BMP180;65216;51.090;-115.352;2023-04-07T07:58:25;86469.20;;;21.10
76394;BMP180;65216;51.090;-115.352;2023-04-07T08:00:52;86463.40;;;21.10
76394;BMP180;65216;51.090;-115.352;2023-04-07T08:03:19;86470.40;;;21.10
76394;BMP180;65216;51.090;-115.352;2023-04-07T08:05:50;86470.80;;;21.10
76394;BMP180;65216;51.090;-115.352;2023-04-07T08:08:18;86466.60;;;21.10
76394;BMP180;65216;51.090;-115.352;2023-04-07T08:10:47;86466.20;;;21.10
76394;BMP180;65216;51.090;-115.352;2023-04-07T08:13:14;86461.00;;;21.10
76394;BMP180;65216;51.090;-115.352;2023-04-07T08:15:44;86461.80;;;21.10
76394;BMP180;65216;51.090;-115.352;2023-04-07T08:18:11;86466.00;;;21.10
76394;BMP180;65216;51.090;-115.352;2023-04-07T08:20:38;86470.20;;;21.10
76394;BMP180;65216;51.090;-115.352;2023-04-07T08:23:05;86462.60;;;21.10
76394;BMP180;65216;51.090;-115.352;2023-04-07T08:25:32;86461.40;;;21.10
76394;BMP180;65216;51.090;-115.352;2023-04-07T08:27:59;86454.20;;;21.10
76394;BMP180;65216;51.090;-115.352;2023-04-07T08:30:26;86460.80;;;21.10
76394;BMP180;65216;51.090;-115.352;2023-04-07T08:32:53;86461.00;;;21.10
76394;BMP180;65216;51.090;-115.352;2023-04-07T08:35:20;86457.80;;;21.10
76394;BMP180;65216;51.090;-115.352;2023-04-07T08:37:47;86458.40;;;21.10
76394;BMP180;65216;51.090;-115.352;2023-04-07T08:40:17;86464.80;;;21.10
76394;BMP180;65216;51.090;-115.352;2023-04-07T08:42:48;86459.20;;;21.10
76394;BMP180;65216;51.090;-115.352;2023-04-07T08:45:17;86459.20;;;21.10
76394;BMP180;65216;51.090;-115.352;2023-04-07T08:47:53;86456.60;;;21.10
76394;BMP180;65216;51.090;-115.352;2023-04-07T08:50:25;86450.80;;;21.10
76394;BMP180;65216;51.090;-115.352;2023-04-07T08:52:55;86454.60;;;21.10
76394;BMP180;65216;51.090;-115.352;2023-04-07T08:55:25;86457.20;;;21.10
76394;BMP180;65216;51.090;-115.352;2023-04-07T08:57:53;86453.20;;;21.10
76394;BMP180;65216;51.090;-115.352;2023-04-07T09:00:20;86446.40;;;21.10
76394;BMP180;65216;51.090;-115.352;2023-04-07T09:02:48;86450.40;;;21.10
76394;BMP180;65216;51.090;-115.352;2023-04-07T09:05:17;86441.00;;;21.10
76394;BMP180;65216;51.090;-115.352;2023-04-07T09:07:43;86434.60;;;21.10
76394;BMP180;65216;51.090;-115.352;2023-04-07T09:10:11;86432.40;;;21.10
76394;BMP180;65216;51.090;-115.352;2023-04-07T09:12:38;86432.20;;;21.10
76394;BMP180;65216;51.090;-115.352;2023-04-07T09:15:07;86431.20;;;21.10
76394;BMP180;65216;51.090;-115.352;2023-04-07T09:17:34;86427.80;;;21.10
76394;BMP180;65216;51.090;-115.352;2023-04-07T09:20:02;86427.20;;;21.10
76394;BMP180;65216;51.090;-115.352;2023-04-07T09:25:21;86424.60;;;21.10
76394;BMP180;65216;51.090;-115.352;2023-04-07T09:28:00;86413.60;;;21.10
76394;BMP180;65216;51.090;-115.352;2023-04-07T09:30:29;86419.80;;;21.10
76394;BMP180;65216;51.090;-115.352;2023-04-07T09:32:59;86410.40;;;21.10
76394;BMP180;65216;51.090;-115.352;2023-04-07T09:35:26;86415.00;;;21.10
76394;BMP180;65216;51.090;-115.352;2023-04-07T09:38:15;86419.40;;;21.10
76394;BMP180;65216;51.090;-115.352;2023-04-07T09:40:42;86417.80;;;21.10
76394;BMP180;65216;51.090;-115.352;2023-04-07T09:43:16;86418.80;;;21.10
76394;BMP180;65216;51.090;-115.352;2023-04-07T09:45:43;86416.80;;;21.10
76394;BMP180;65216;51.090;-115.352;2023-04-07T09:48:21;86414.00;;;21.10
76394;BMP180;65216;51.090;-115.352;2023-04-07T09:50:48;86410.20;;;21.10
76394;BMP180;65216;51.090;-115.352;2023-04-07T09:53:17;86410.60;;;21.10
76394;BMP180;65216;51.090;-115.352;2023-04-07T09:55:49;86413.80;;;21.10
76394;BMP180;65216;51.090;-115.352;2023-04-07T09:58:16;86405.60;;;21.10
76394;BMP180;65216;51.090;-115.352;2023-04-07T10:00:44;86409.00;;;21.10
76394;BMP180;65216;51.090;-115.352;2023-04-07T10:03:12;86405.00;;;21.10
76394;BMP180;65216;51.090;-115.352;2023-04-07T10:05:40;86403.60;;;21.10
76394;BMP180;65216;51.090;-115.352;2023-04-07T10:08:09;86406.00;;;21.10
76394;BMP180;65216;51.090;-115.352;2023-04-07T10:10:41;86409.60;;;21.10
76394;BMP180;65216;51.090;-115.352;2023-04-07T10:13:09;86410.80;;;21.10
76394;BMP180;65216;51.090;-115.352;2023-04-07T10:15:37;86410.00;;;21.10
76394;BMP180;65216;51.090;-115.352;2023-04-07T10:18:07;86401.80;;;21.06
76394;BMP180;65216;51.090;-115.352;2023-04-07T10:20:39;86400.60;;;21.10
76394;BMP180;65216;51.090;-115.352;2023-04-07T10:23:26;86403.80;;;21.08
76394;BMP180;65216;51.090;-115.352;2023-04-07T10:25:58;86401.80;;;21.10
76394;BMP180;65216;51.090;-115.352;2023-04-07T10:28:29;86405.00;;;21.02
76394;BMP180;65216;51.090;-115.352;2023-04-07T10:30:58;86408.60;;;21.00
76394;BMP180;65216;51.090;-115.352;2023-04-07T10:33:48;86400.80;;;21.00
76394;BMP180;65216;51.090;-115.352;2023-04-07T10:36:18;86409.60;;;21.00
76394;BMP180;65216;51.090;-115.352;2023-04-07T10:41:41;86402.20;;;21.00
76394;BMP180;65216;51.090;-115.352;2023-04-07T10:44:09;86398.60;;;20.98
76394;BMP180;65216;51.090;-115.352;2023-04-07T10:47:03;86401.80;;;20.90
76394;BMP180;65216;51.090;-115.352;2023-04-07T10:49:36;86398.80;;;20.90
76394;BMP180;65216;51.090;-115.352;2023-04-07T10:52:24;86401.40;;;20.90
76394;BMP180;65216;51.090;-115.352;2023-04-07T10:55:31;86400.40;;;20.90
76394;BMP180;65216;51.090;-115.352;2023-04-07T11:03:38;86383.60;;;20.80
76394;BMP180;65216;51.090;-115.352;2023-04-07T11:06:14;86387.00;;;20.80
76394;BMP180;65216;51.090;-115.352;2023-04-07T11:08:45;86389.80;;;20.80
76394;BMP180;65216;51.090;-115.352;2023-04-07T11:11:19;86389.80;;;20.80
76394;BMP180;65216;51.090;-115.352;2023-04-07T11:13:50;86391.00;;;20.80
76394;BMP180;65216;51.090;-115.352;2023-04-07T11:16:20;86387.60;;;20.80
76394;BMP180;65216;51.090;-115.352;2023-04-07T11:18:59;86388.40;;;20.74
76394;BMP180;65216;51.090;-115.352;2023-04-07T11:21:26;86388.40;;;20.72
76394;BMP180;65216;51.090;-115.352;2023-04-07T11:23:57;86388.20;;;20.70
76394;BMP180;65216;51.090;-115.352;2023-04-07T11:26:24;86391.00;;;20.70
76394;BMP180;65216;51.090;-115.352;2023-04-07T11:28:54;86391.40;;;20.70
76394;BMP180;65216;51.090;-115.352;2023-04-07T11:31:28;86389.20;;;20.70
76394;BMP180;65216;51.090;-115.352;2023-04-07T11:34:02;86386.20;;;20.70
76394;BMP180;65216;51.090;-115.352;2023-04-07T11:36:38;86373.40;;;20.70
76394;BMP180;65216;51.090;-115.352;2023-04-07T11:39:16;86373.40;;;20.70
76394;BMP180;65216;51.090;-115.352;2023-04-07T11:41:48;86371.60;;;20.70
76394;BMP180;65216;51.090;-115.352;2023-04-07T11:44:16;86372.40;;;20.70
76394;BMP180;65216;51.090;-115.352;2023-04-07T11:47:02;86373.00;;;20.62
76394;BMP180;65216;51.090;-115.352;2023-04-07T11:49:30;86372.60;;;20.60
76394;BMP180;65216;51.090;-115.352;2023-04-07T11:52:06;86368.20;;;20.60
76394;BMP180;65216;51.090;-115.352;2023-04-07T11:54:46;86370.60;;;20.60
76394;BMP180;65216;51.090;-115.352;2023-04-07T11:57:14;86367.20;;;20.60
76394;BMP180;65216;51.090;-115.352;2023-04-07T11:59:49;86362.60;;;20.60
76394;BMP180;65216;51.090;-115.352;2023-04-07T12:02:33;86365.60;;;20.60
76394;BMP180;65216;51.090;-115.352;2023-04-07T12:05:04;86356.40;;;20.60
76394;BMP180;65216;51.090;-115.352;2023-04-07T12:07:31;86350.60;;;20.60
76394;BMP180;65216;51.090;-115.352;2023-04-07T12:10:28;86348.20;;;20.60
76394;BMP180;65216;51.090;-115.352;2023-04-07T12:12:56;86342.40;;;20.60
76394;BMP180;65216;51.090;-115.352;2023-04-07T12:15:22;86346.00;;;20.60
76394;BMP180;65216;51.090;-115.352;2023-04-07T12:17:49;86342.40;;;20.60
76394;BMP180;65216;51.090;-115.352;2023-04-07T12:20:20;86342.60;;;20.60
76394;BMP180;65216;51.090;-115.352;2023-04-07T12:22:50;86343.80;;;20.54
76394;BMP180;65216;51.090;-115.352;2023-04-07T12:25:20;86340.00;;;20.50
76394;BMP180;65216;51.090;-115.352;2023-04-07T12:27:46;86330.60;;;20.50
76394;BMP180;65216;51.090;-115.352;2023-04-07T12:30:16;86323.00;;;20.50
76394;BMP180;65216;51.090;-115.352;2023-04-07T12:32:43;86320.40;;;20.50
76394;BMP180;65216;51.090;-115.352;2023-04-07T12:35:10;86310.60;;;20.50
76394;BMP180;65216;51.090;-115.352;2023-04-07T12:37:37;86310.60;;;20.50
76394;BMP180;65216;51.090;-115.352;2023-04-07T12:40:08;86302.00;;;20.50
76394;BMP180;65216;51.090;-115.352;2023-04-07T12:42:35;86297.00;;;20.50
76394;BMP180;65216;51.090;-115.352;2023-04-07T12:45:02;86294.60;;;20.50
76394;BMP180;65216;51.090;-115.352;2023-04-07T12:47:29;86294.80;;;20.50
76394;BMP180;65216;51.090;-115.352;2023-04-07T12:49:57;86287.60;;;20.50
76394;BMP180;65216;51.090;-115.352;2023-04-07T12:52:24;86290.20;;;20.50
76394;BMP180;65216;51.090;-115.352;2023-04-07T12:54:51;86280.00;;;20.50
76394;BMP180;65216;51.090;-115.352;2023-04-07T12:57:18;86270.00;;;20.50
76394;BMP180;65216;51.090;-115.352;2023-04-07T12:59:49;86279.20;;;20.50
76394;BMP180;65216;51.090;-115.352;2023-04-07T13:02:17;86287.40;;;20.50
76394;BMP180;65216;51.090;-115.352;2023-04-07T13:04:46;86284.20;;;20.50
76394;BMP180;65216;51.090;-115.352;2023-04-07T13:07:13;86286.20;;;20.50
76394;BMP180;65216;51.090;-115.352;2023-04-07T13:09:41;86280.60;;;20.50
76394;BMP180;65216;51.090;-115.352;2023-04-07T13:12:11;86284.80;;;20.50
76394;BMP180;65216;51.090;-115.352;2023-04-07T13:14:40;86290.60;;;20.50
76394;BMP180;65216;51.090;-115.352;2023-04-07T13:17:07;86292.00;;;20.50
76394;BMP180;65216;51.090;-115.352;2023-04-07T13:19:34;86289.00;;;20.50
76394;BMP180;65216;51.090;-115.352;2023-04-07T13:22:05;86284.40;;;20.50
76394;BMP180;65216;51.090;-115.352;2023-04-07T13:24:34;86278.80;;;20.50
76394;BMP180;65216;51.090;-115.352;2023-04-07T13:27:02;86290.20;;;20.50
76394;BMP180;65216;51.090;-115.352;2023-04-07T13:29:29;86293.00;;;20.50
76394;BMP180;65216;51.090;-115.352;2023-04-07T13:32:13;86289.40;;;20.50
76394;BMP180;65216;51.090;-115.352;2023-04-07T13:34:41;86286.20;;;20.48
76394;BMP180;65216;51.090;-115.352;2023-04-07T13:37:09;86285.20;;;20.46
76394;BMP180;65216;51.090;-115.352;2023-04-07T13:39:36;86277.20;;;20.48
76394;BMP180;65216;51.090;-115.352;2023-04-07T13:42:04;86285.40;;;20.46
76394;BMP180;65216;51.090;-115.352;2023-04-07T13:44:33;86281.00;;;20.48
76394;BMP180;65216;51.090;-115.352;2023-04-07T13:47:02;86282.20;;;20.50
76394;BMP180;65216;51.090;-115.352;2023-04-07T13:49:35;86282.80;;;20.50
76394;BMP180;65216;51.090;-115.352;2023-04-07T13:52:03;86283.00;;;20.48
76394;BMP180;65216;51.090;-115.352;2023-04-07T13:54:31;86285.40;;;20.48
76394;BMP180;65216;51.090;-115.352;2023-04-07T13:56:58;86276.40;;;20.48
76394;BMP180;65216;51.090;-115.352;2023-04-07T13:59:25;86282.40;;;20.42
76394;BMP180;65216;51.090;-115.352;2023-04-07T14:01:51;86288.00;;;20.40
76394;BMP180;65216;51.090;-115.352;2023-04-07T14:04:18;86286.40;;;20.40
76394;BMP180;65216;51.090;-115.352;2023-04-07T14:06:46;86281.80;;;20.40